Time;durP1;ratioP1;P1;durP2;ratioP2;P2;SDS_P1;SDS_P2;PMS_P1;PMS_P2;Temp;Humidity;BMP_temperature;BMP_pressure;BME280_temperature;BME280_humidity;BME280_pressure;Samples;Min_cycle;Max_cycle;Signal;HPM_P1;HPM_P2
2023/09/18 00:01:32;;;;;;;46.97;24.05;;;;;;;17.58;100.00;94818.97;5041061;28;20028;-83
2023/09/18 00:03:58;;;;;;;40.83;22.48;;;;;;;17.77;100.00;94804.75;5040782;28;20463;-83
2023/09/18 00:06:26;;;;;;;39.35;23.88;;;;;;;17.91;100.00;94789.56;5057407;28;20035;-83
2023/09/18 00:08:53;;;;;;;36.90;22.67;;;;;;;17.92;100.00;94787.72;5057446;28;20025;-83
2023/09/18 00:11:19;;;;;;;37.47;21.88;;;;;;;18.02;100.00;94791.97;5058463;28;20075;-83
2023/09/18 00:13:44;;;;;;;54.50;26.23;;;;;;;17.78;100.00;94793.88;5057493;28;20029;-83
2023/09/18 00:16:10;;;;;;;54.03;25.90;;;;;;;17.54;100.00;94791.53;5040699;28;20040;-83
2023/09/18 00:18:35;;;;;;;49.15;26.25;;;;;;;17.43;100.00;94788.34;5040373;28;20044;-83
2023/09/18 00:21:01;;;;;;;36.72;24.05;;;;;;;17.58;100.00;94792.47;5058373;28;20033;-82
2023/09/18 00:23:26;;;;;;;40.25;22.13;;;;;;;17.69;100.00;94781.66;5056983;28;20040;-83
2023/09/18 00:25:52;;;;;;;53.28;26.10;;;;;;;17.54;100.00;94775.63;5056916;28;20037;-83
2023/09/18 00:28:17;;;;;;;35.63;21.02;;;;;;;17.74;100.00;94776.22;5058038;28;20029;-82
2023/09/18 00:30:48;;;;;;;44.28;23.67;;;;;;;17.41;100.00;94777.22;5056864;28;20068;-83
2023/09/18 00:33:14;;;;;;;38.67;21.90;;;;;;;17.50;100.00;94779.94;5056941;28;20036;-83
2023/09/18 00:35:39;;;;;;;38.33;21.75;;;;;;;17.50;100.00;94785.25;5040375;28;20032;-83
2023/09/18 00:38:07;;;;;;;37.72;21.40;;;;;;;17.49;100.00;94770.44;5039987;28;20029;-83
2023/09/18 00:40:32;;;;;;;44.78;21.35;;;;;;;17.54;100.00;94780.94;5057358;28;20021;-83
2023/09/18 00:42:58;;;;;;;48.75;25.95;;;;;;;17.66;100.00;94761.81;5056699;28;20083;-83
2023/09/18 00:45:23;;;;;;;54.58;28.13;;;;;;;17.41;100.00;94771.94;5040021;28;20033;-82
2023/09/18 00:47:49;;;;;;;59.42;27.08;;;;;;;17.23;100.00;94774.47;5056224;28;20021;-83
2023/09/18 00:50:15;;;;;;;49.63;27.98;;;;;;;17.41;100.00;94769.28;5056480;28;20025;-83
2023/09/18 00:52:41;;;;;;;48.10;26.75;;;;;;;17.64;100.00;94762.13;5057744;28;20025;-83
2023/09/18 00:55:07;;;;;;;45.50;24.67;;;;;;;17.72;100.00;94765.13;5056446;28;20369;-83
2023/09/18 00:57:32;;;;;;;62.13;29.58;;;;;;;17.55;100.00;94761.31;5056380;28;20036;-83
2023/09/18 00:59:58;;;;;;;48.45;26.40;;;;;;;17.42;100.00;94754.19;5039803;28;20062;-82
2023/09/18 01:02:23;;;;;;;47.95;25.23;;;;;;;17.33;100.00;94746.97;5056295;28;20033;-82
2023/09/18 01:04:49;;;;;;;44.58;22.70;;;;;;;17.53;100.00;94743.03;5056628;28;20128;-82
2023/09/18 01:07:15;;;;;;;52.45;27.30;;;;;;;17.21;100.00;94741.41;5055915;28;20784;-83
2023/09/18 01:09:40;;;;;;;57.50;27.73;;;;;;;17.10;100.00;94736.38;5039435;28;20032;-83
2023/09/18 01:12:15;;;;;;;50.47;25.73;;;;;;;17.23;100.00;94739.28;5056360;28;20323;-83
2023/09/18 01:15:06;;;;;;;47.30;25.17;;;;;;;17.35;100.00;94738.72;5056070;28;20021;-82
2023/09/18 01:17:38;;;;;;;56.17;28.05;;;;;;;17.18;100.00;94739.38;5055897;28;20041;-83
2023/09/18 01:20:05;;;;;;;52.80;27.67;;;;;;;17.13;100.00;94747.44;5039861;28;20066;-83
2023/09/18 01:22:32;;;;;;;59.45;29.52;;;;;;;17.04;100.00;94744.72;5039618;28;20434;-83
2023/09/18 01:24:58;;;;;;;49.35;25.75;;;;;;;17.11;100.00;94747.72;5055749;28;20520;-83
2023/09/18 01:27:23;;;;;;;47.78;25.45;;;;;;;17.39;100.00;94750.28;5055690;28;20032;-83
2023/09/18 01:29:49;;;;;;;45.00;24.02;;;;;;;17.46;100.00;94731.31;5056950;28;20327;-83
2023/09/18 01:32:15;;;;;;;46.47;24.73;;;;;;;17.55;100.00;94731.38;5055709;28;20029;-83
2023/09/18 01:34:45;;;;;;;51.17;27.13;;;;;;;17.41;100.00;94731.44;5056947;28;20039;-83
2023/09/18 01:37:11;;;;;;;45.10;24.90;;;;;;;17.44;100.00;94728.19;5039005;28;20438;-83
2023/09/18 01:39:38;;;;;;;50.63;26.38;;;;;;;17.63;100.00;94728.00;5038911;28;20033;-83
2023/09/18 01:42:05;;;;;;;51.45;26.95;;;;;;;17.49;100.00;94722.75;5055140;28;20041;-83
2023/09/18 01:44:31;;;;;;;43.15;24.33;;;;;;;17.76;100.00;94726.34;5056772;28;20029;-82
2023/09/18 01:47:02;;;;;;;49.50;26.73;;;;;;;17.54;100.00;94722.66;5055557;28;20112;-82
2023/09/18 01:49:28;;;;;;;47.90;26.42;;;;;;;17.37;100.00;94718.81;5055164;28;20060;-82
2023/09/18 01:51:54;;;;;;;49.75;26.80;;;;;;;17.31;100.00;94722.66;5055326;28;20091;-83
2023/09/18 01:54:19;;;;;;;46.58;23.60;;;;;;;17.51;100.00;94721.38;5054550;28;20029;-83
2023/09/18 01:56:45;;;;;;;38.38;20.40;;;;;;;17.58;100.00;94712.25;5054548;28;20025;-83
2023/09/18 01:59:10;;;;;;;44.88;18.27;;;;;;;17.85;100.00;94716.56;5048114;28;20037;-83
2023/09/18 02:01:37;;;;;;;33.03;17.45;;;;;;;17.88;100.00;94715.97;5054442;28;20079;-83
2023/09/18 02:04:04;;;;;;;26.80;14.35;;;;;;;18.09;100.00;94702.97;5055363;28;20493;-83
2023/09/18 02:06:29;;;;;;;22.10;12.27;;;;;;;18.04;100.00;94702.34;5038551;28;20534;-83
2023/09/18 02:08:55;;;;;;;21.60;13.05;;;;;;;18.05;100.00;94709.19;5038168;28;20123;-83
2023/09/18 02:11:20;;;;;;;28.27;13.60;;;;;;;18.18;100.00;94712.84;5055007;28;20123;-83
2023/09/18 02:13:46;;;;;;;24.60;14.68;;;;;;;17.87;100.00;94703.78;5054618;28;20052;-83
2023/09/18 02:16:11;;;;;;;30.48;14.63;;;;;;;18.16;100.00;94699.88;5055964;28;20025;-83
2023/09/18 02:18:37;;;;;;;25.83;13.35;;;;;;;18.25;100.00;94693.84;5037990;28;20430;-82
2023/09/18 02:21:02;;;;;;;34.15;14.02;;;;;;;17.93;100.00;94692.00;5054676;28;20035;-83
2023/09/18 02:23:28;;;;;;;28.65;15.90;;;;;;;18.11;100.00;94691.28;5038413;28;20028;-83
2023/09/18 02:25:57;;;;;;;32.75;14.52;;;;;;;18.39;100.00;94691.06;5054631;28;20064;-83
2023/09/18 02:28:23;;;;;;;32.97;14.98;;;;;;;18.15;100.00;94685.06;5054468;28;20391;-83
2023/09/18 02:30:48;;;;;;;32.45;15.90;;;;;;;17.91;100.00;94683.53;5037295;28;20075;-83
2023/09/18 02:33:15;;;;;;;32.13;16.27;;;;;;;18.21;100.00;94675.88;5034767;28;20037;-83
2023/09/18 02:35:41;;;;;;;35.50;19.85;;;;;;;17.63;100.00;94665.19;5018392;28;20032;-83
2023/09/18 02:38:06;;;;;;;30.98;18.17;;;;;;;17.64;100.00;94664.09;5034338;28;20427;-83
2023/09/18 02:40:32;;;;;;;33.38;19.30;;;;;;;17.88;100.00;94652.34;5018034;28;20035;-82
2023/09/18 02:42:57;;;;;;;27.67;15.10;;;;;;;18.13;100.00;94634.22;5034459;28;20059;-83
2023/09/18 02:45:22;;;;;;;23.90;15.18;;;;;;;18.05;100.00;94643.72;5034273;28;20427;-83
2023/09/18 02:47:48;;;;;;;33.53;14.88;;;;;;;18.02;100.00;94646.97;5035418;28;20021;-83
2023/09/18 02:50:13;;;;;;;31.13;17.55;;;;;;;17.73;100.00;94631.56;5034530;28;20116;-83
2023/09/18 02:52:39;;;;;;;39.95;20.30;;;;;;;17.35;100.00;94628.25;5034298;28;20094;-83
2023/09/18 02:55:05;;;;;;;30.40;17.83;;;;;;;17.20;100.00;94618.06;5034331;28;20056;-83
2023/09/18 02:57:30;;;;;;;34.10;16.52;;;;;;;17.36;100.00;94629.84;5034140;28;20084;-83
2023/09/18 02:59:55;;;;;;;33.65;16.48;;;;;;;17.50;100.00;94627.09;5034236;28;20426;-83
2023/09/18 03:02:21;;;;;;;39.03;18.23;;;;;;;17.26;100.00;94611.56;5035420;28;20029;-83
2023/09/18 03:04:46;;;;;;;32.65;18.27;;;;;;;17.06;100.00;94597.72;5034165;28;20029;-83
2023/09/18 03:07:16;;;;;;;35.20;19.52;;;;;;;17.27;100.00;94613.13;5034272;28;20029;-83
2023/09/18 03:09:41;;;;;;;34.83;17.85;;;;;;;17.47;100.00;94617.13;5034092;28;20025;-83
2023/09/18 03:12:07;;;;;;;41.45;21.77;;;;;;;17.22;100.00;94606.09;5034161;28;20739;-83
2023/09/18 03:14:32;;;;;;;45.63;21.98;;;;;;;17.16;100.00;94598.56;5034006;28;20040;-83
2023/09/18 03:16:58;;;;;;;39.05;19.55;;;;;;;17.37;100.00;94596.19;5034105;28;20060;-83
2023/09/18 03:19:24;;;;;;;31.70;17.52;;;;;;;17.47;100.00;94589.84;5034992;28;20434;-83
2023/09/18 03:21:50;;;;;;;34.03;18.60;;;;;;;17.56;100.00;94581.94;5034011;28;20032;-83
2023/09/18 03:24:15;;;;;;;30.50;18.08;;;;;;;17.74;100.00;94577.47;5034050;28;20029;-83
2023/09/18 03:26:40;;;;;;;31.15;18.50;;;;;;;17.79;100.00;94570.16;5017754;28;20026;-83
2023/09/18 03:29:06;;;;;;;35.15;19.60;;;;;;;17.75;100.00;94568.44;5033747;28;20029;-83
2023/09/18 03:31:31;;;;;;;32.70;17.65;;;;;;;17.79;100.00;94574.72;5033961;28;20427;-83
2023/09/18 03:33:57;;;;;;;37.58;17.95;;;;;;;17.80;100.00;94579.69;5033980;28;20036;-83
2023/09/18 03:36:25;;;;;;;32.90;18.23;;;;;;;17.91;100.00;94571.44;5033883;28;20064;-83
2023/09/18 03:38:50;;;;;;;39.65;17.90;;;;;;;18.02;100.00;94577.22;5033605;28;20344;-83
2023/09/18 03:41:16;;;;;;;38.83;18.15;;;;;;;17.70;100.00;94576.53;5033913;28;20032;-83
2023/09/18 03:43:41;;;;;;;37.83;19.33;;;;;;;17.52;100.00;94582.53;5033811;28;20332;-83
2023/09/18 03:46:07;;;;;;;35.67;19.75;;;;;;;17.64;100.00;94581.19;5035082;28;20029;-83
2023/09/18 03:48:37;;;;;;;42.50;20.10;;;;;;;17.90;100.00;94593.75;5033507;28;20032;-83
2023/09/18 03:51:06;;;;;;;34.90;20.23;;;;;;;17.94;100.00;94595.47;5034793;28;20031;-83
2023/09/18 03:53:35;;;;;;;38.58;19.05;;;;;;;17.97;100.00;94588.75;5033705;28;20065;-83
2023/09/18 03:56:00;;;;;;;33.38;17.67;;;;;;;18.12;100.00;94589.44;5034294;28;20029;-83
2023/09/18 03:58:26;;;;;;;39.90;19.95;;;;;;;18.25;100.00;94593.06;5036976;28;20040;-83
2023/09/18 04:00:52;;;;;;;38.60;22.00;;;;;;;18.02;100.00;94593.97;5053398;28;20070;-83
2023/09/18 04:03:18;;;;;;;39.05;22.92;;;;;;;17.75;100.00;94600.22;5053598;28;20125;-83
2023/09/18 04:05:45;;;;;;;43.00;19.17;;;;;;;18.02;100.00;94586.00;5036432;28;20041;-83
2023/09/18 04:08:11;;;;;;;33.47;18.70;;;;;;;18.13;100.00;94597.09;5052273;28;20028;-83
2023/09/18 04:10:36;;;;;;;32.28;17.48;;;;;;;18.26;100.00;94590.09;5036687;28;20376;-83
2023/09/18 04:13:02;;;;;;;30.85;17.55;;;;;;;18.08;100.00;94594.59;5052909;28;20025;-83
2023/09/18 04:15:30;;;;;;;43.45;17.15;;;;;;;18.07;100.00;94600.97;5053010;28;20029;-83
2023/09/18 04:17:55;;;;;;;38.55;17.30;;;;;;;18.16;100.00;94608.97;5037160;28;20174;-83
2023/09/18 04:20:21;;;;;;;39.47;16.52;;;;;;;17.91;100.00;94604.03;5052794;28;20127;-83
2023/09/18 04:22:51;;;;;;;38.03;16.33;;;;;;;18.24;100.00;94605.53;5057497;28;20040;-83
2023/09/18 04:25:16;;;;;;;29.42;15.70;;;;;;;18.10;100.00;94608.31;5056557;28;20033;-83
2023/09/18 04:27:42;;;;;;;37.85;16.75;;;;;;;18.12;100.00;94608.00;5040143;28;20025;-83
2023/09/18 04:30:09;;;;;;;25.48;14.93;;;;;;;18.09;100.00;94627.97;5057192;28;20501;-83
2023/09/18 04:32:37;;;;;;;25.80;15.40;;;;;;;18.00;100.00;94633.19;5056945;28;20032;-83
2023/09/18 04:35:05;;;;;;;29.15;16.08;;;;;;;17.80;100.00;94629.25;5056651;28;20025;-83
2023/09/18 04:37:30;;;;;;;27.00;15.32;;;;;;;17.73;100.00;94621.75;5039358;28;20465;-83
2023/09/18 04:39:57;;;;;;;29.63;15.10;;;;;;;17.99;100.00;94625.56;5056563;28;20028;-83
2023/09/18 04:42:23;;;;;;;32.38;17.55;;;;;;;17.74;100.00;94625.97;5056629;28;20079;-83
2023/09/18 04:44:50;;;;;;;26.17;14.70;;;;;;;17.73;100.00;94629.72;5040363;28;20537;-83
2023/09/18 04:47:16;;;;;;;31.08;15.95;;;;;;;17.77;100.00;94624.56;5056468;28;20035;-83
2023/09/18 04:49:41;;;;;;;32.15;15.25;;;;;;;18.02;100.00;94622.31;5056828;28;20024;-83
2023/09/18 04:52:07;;;;;;;34.70;15.50;;;;;;;18.17;100.00;94631.72;5056706;28;20029;-83
2023/09/18 04:54:32;;;;;;;33.55;15.13;;;;;;;18.25;100.00;94627.53;5056905;28;20710;-83
2023/09/18 04:56:57;;;;;;;25.85;14.15;;;;;;;18.29;100.00;94625.81;5053372;28;20033;-81
2023/09/18 04:59:23;;;;;;;30.10;16.02;;;;;;;17.95;100.00;94631.50;5056476;28;20437;-81
2023/09/18 05:01:48;;;;;;;31.13;15.10;;;;;;;18.21;100.00;94625.47;5054480;28;20029;-80
2023/09/18 05:04:14;;;;;;;24.40;14.10;;;;;;;18.23;100.00;94636.59;5019741;28;20438;-81
2023/09/18 05:06:41;;;;;;;25.85;13.73;;;;;;;18.25;100.00;94643.44;5062993;28;20025;-80
2023/09/18 05:09:07;;;;;;;33.55;14.75;;;;;;;18.04;100.00;94651.97;5057629;28;20086;-81
2023/09/18 05:11:32;;;;;;;21.35;12.60;;;;;;;18.02;100.00;94648.81;5055837;28;20029;-80
2023/09/18 05:13:58;;;;;;;33.75;15.93;;;;;;;17.67;100.00;94641.50;5056921;28;20069;-80
2023/09/18 05:16:23;;;;;;;32.22;15.38;;;;;;;17.97;100.00;94633.81;5055573;28;20442;-80
2023/09/18 05:18:48;;;;;;;27.20;15.38;;;;;;;18.03;100.00;94626.53;5055573;28;20079;-81
2023/09/18 05:21:14;;;;;;;30.92;16.10;;;;;;;18.06;100.00;94632.00;5056620;28;20449;-80
2023/09/18 05:23:39;;;;;;;26.48;13.95;;;;;;;18.09;100.00;94638.59;5038815;28;20033;-81
2023/09/18 05:26:05;;;;;;;28.60;15.48;;;;;;;17.99;100.00;94646.78;5054869;28;20453;-81
2023/09/18 05:28:30;;;;;;;37.10;17.85;;;;;;;18.01;100.00;94644.59;5038498;28;20083;-81
2023/09/18 05:30:55;;;;;;;29.85;14.75;;;;;;;17.80;100.00;94653.88;5055021;28;20060;-80
2023/09/18 05:33:21;;;;;;;33.33;16.85;;;;;;;18.07;100.00;94651.34;5037407;28;20063;-81
2023/09/18 05:35:46;;;;;;;30.58;16.20;;;;;;;18.17;100.00;94643.09;5054870;28;20037;-80
2023/09/18 05:38:13;;;;;;;33.47;16.45;;;;;;;18.06;100.00;94658.53;5054528;28;20032;-80
2023/09/18 05:40:39;;;;;;;32.05;17.08;;;;;;;18.13;100.00;94660.72;5038515;28;20025;-80
2023/09/18 05:43:04;;;;;;;31.00;15.65;;;;;;;18.37;100.00;94670.91;5054718;28;20032;-80
2023/09/18 05:45:31;;;;;;;27.98;13.60;;;;;;;18.15;100.00;94665.75;5054873;28;20037;-81
2023/09/18 05:48:06;;;;;;;30.23;14.48;;;;;;;17.66;100.00;94669.88;5054955;28;20033;-81
2023/09/18 05:50:32;;;;;;;28.70;15.63;;;;;;;17.67;100.00;94668.00;5056461;28;20500;-81
2023/09/18 05:53:03;;;;;;;34.53;15.95;;;;;;;17.92;100.00;94674.50;5055046;28;20222;-81
2023/09/18 05:55:33;;;;;;;23.65;15.18;;;;;;;18.17;100.00;94674.94;5056523;28;20429;-81
2023/09/18 05:57:59;;;;;;;27.48;14.60;;;;;;;18.43;100.00;94678.72;5055084;28;20422;-81
2023/09/18 06:00:25;;;;;;;34.15;17.02;;;;;;;18.47;100.00;94669.84;5054901;28;20060;-81
2023/09/18 06:02:53;;;;;;;33.70;18.95;;;;;;;18.50;100.00;94674.53;5054751;28;20075;-81
2023/09/18 06:05:21;;;;;;;36.10;16.77;;;;;;;19.07;100.00;94666.78;5056372;28;20323;-83
2023/09/18 06:07:50;;;;;;;36.95;21.48;;;;;;;19.50;100.00;94657.16;5054906;28;20048;-83
2023/09/18 06:10:17;;;;;;;30.02;15.63;;;;;;;19.30;100.00;94640.03;5054971;28;20025;-83
2023/09/18 06:12:43;;;;;;;24.38;13.13;;;;;;;19.34;100.00;94644.38;5055168;28;20179;-83
2023/09/18 06:15:09;;;;;;;28.35;14.80;;;;;;;19.84;100.00;94638.75;5054953;28;20054;-83
2023/09/18 06:17:39;;;;;;;36.33;16.58;;;;;;;19.88;100.00;94645.00;5055854;28;20052;-83
2023/09/18 06:20:09;;;;;;;21.48;13.50;;;;;;;19.92;100.00;94636.09;5054536;28;20342;-83
2023/09/18 06:22:34;;;;;;;26.05;13.30;;;;;;;20.10;100.00;94621.94;5055186;28;20063;-83
2023/09/18 06:25:00;;;;;;;21.58;12.55;;;;;;;20.05;100.00;94612.25;5054768;28;20438;-83
2023/09/18 06:27:25;;;;;;;22.17;11.95;;;;;;;20.22;100.00;94608.72;5038101;28;20029;-83
2023/09/18 06:29:50;;;;;;;22.38;11.02;;;;;;;20.20;100.00;94600.28;5054907;28;20025;-83
2023/09/18 06:32:16;;;;;;;25.30;11.30;;;;;;;19.90;100.00;94602.94;5054684;28;20064;-83
2023/09/18 06:34:44;;;;;;;21.23;11.25;;;;;;;20.04;100.00;94595.53;5054592;28;20101;-83
2023/09/18 06:37:12;;;;;;;20.23;10.98;;;;;;;19.98;100.00;94601.34;5054521;28;20029;-83
2023/09/18 06:39:38;;;;;;;21.02;12.32;;;;;;;19.99;100.00;94602.91;5054500;28;20442;-83
2023/09/18 06:42:04;;;;;;;21.08;11.38;;;;;;;19.94;100.00;94613.72;5054589;28;20032;-83
2023/09/18 06:44:29;;;;;;;21.45;10.95;;;;;;;20.01;100.00;94616.66;5054096;28;20029;-83
2023/09/18 06:46:55;;;;;;;18.88;12.60;;;;;;;20.03;100.00;94620.56;5054262;28;20136;-83
2023/09/18 06:49:20;;;;;;;23.20;12.70;;;;;;;19.90;100.00;94621.53;5038219;28;20520;-83
2023/09/18 06:51:45;;;;;;;24.75;12.30;;;;;;;19.90;100.00;94610.91;5054339;28;20033;-83
2023/09/18 06:54:11;;;;;;;20.45;12.15;;;;;;;19.81;100.00;94610.16;5054227;28;20099;-83
2023/09/18 06:56:36;;;;;;;20.45;13.10;;;;;;;20.13;100.00;94611.44;5054230;28;20025;-83
2023/09/18 06:59:02;;;;;;;20.60;12.98;;;;;;;20.18;100.00;94610.47;5054111;28;20025;-83
2023/09/18 07:01:28;;;;;;;30.63;12.98;;;;;;;19.88;100.00;94613.13;5055268;28;20029;-83
2023/09/18 07:03:53;;;;;;;24.00;11.73;;;;;;;19.46;100.00;94617.19;5054193;28;20025;-83
2023/09/18 07:06:20;;;;;;;25.65;13.80;;;;;;;19.97;100.00;94621.06;5054126;28;20114;-83
2023/09/18 07:08:47;;;;;;;26.17;14.23;;;;;;;20.19;100.00;94628.75;5054378;28;20025;-83
2023/09/18 07:11:12;;;;;;;25.48;14.50;;;;;;;19.92;100.00;94630.78;5054344;28;20035;-83
2023/09/18 07:13:38;;;;;;;30.40;12.55;;;;;;;20.26;100.00;94632.81;5054361;28;20037;-83
2023/09/18 07:16:04;;;;;;;34.70;14.65;;;;;;;20.06;100.00;94627.91;5037589;28;20091;-83
2023/09/18 07:18:29;;;;;;;28.60;13.55;;;;;;;20.05;100.00;94623.69;5053755;28;20037;-83
2023/09/18 07:20:55;;;;;;;28.10;14.40;;;;;;;20.51;100.00;94636.38;5036615;28;20036;-83
2023/09/18 07:23:20;;;;;;;30.73;15.20;;;;;;;20.45;100.00;94629.72;5036555;28;20029;-83
2023/09/18 07:25:47;;;;;;;26.67;16.08;;;;;;;20.66;100.00;94631.59;5070002;28;20059;-83
2023/09/18 07:28:17;;;;;;;27.95;15.80;;;;;;;20.88;100.00;94630.50;5054223;28;20435;-83
2023/09/18 07:30:43;;;;;;;32.75;16.02;;;;;;;20.87;100.00;94626.28;5053016;28;20033;-83
2023/09/18 07:33:12;;;;;;;36.78;14.68;;;;;;;21.07;100.00;94626.56;5036891;28;20043;-83
2023/09/18 07:35:38;;;;;;;29.27;15.52;;;;;;;21.35;100.00;94618.78;5053072;28;20472;-83
2023/09/18 07:38:04;;;;;;;28.95;14.93;;;;;;;21.01;100.00;94626.78;5053060;28;20541;-83
2023/09/18 07:40:30;;;;;;;31.88;12.55;;;;;;;21.08;100.00;94630.78;5052880;28;20100;-83
2023/09/18 07:42:55;;;;;;;28.23;12.35;;;;;;;22.19;100.00;94635.53;5052927;28;20079;-83
2023/09/18 07:45:21;;;;;;;22.85;11.05;;;;;;;22.61;100.00;94634.47;5052786;28;20037;-83
2023/09/18 07:47:46;;;;;;;20.45;10.43;;;;;;;23.17;100.00;94627.59;5052784;28;20032;-83
2023/09/18 07:50:12;;;;;;;21.83;9.93;;;;;;;23.34;100.00;94625.75;5052878;28;20052;-83
2023/09/18 07:52:38;;;;;;;21.13;10.32;;;;;;;22.95;100.00;94629.69;5054059;28;20060;-83
2023/09/18 07:55:03;;;;;;;20.95;10.50;;;;;;;23.36;100.00;94626.19;5052647;28;20054;-83
2023/09/18 07:57:31;;;;;;;21.55;10.65;;;;;;;23.37;100.00;94625.06;5056544;28;20051;-83
2023/09/18 07:59:57;;;;;;;23.83;10.93;;;;;;;22.85;100.00;94617.59;5056353;28;20025;-83
2023/09/18 08:02:22;;;;;;;21.73;10.65;;;;;;;22.52;100.00;94621.28;5056342;28;20036;-83
2023/09/18 08:04:48;;;;;;;19.45;9.27;;;;;;;22.39;100.00;94622.38;5056195;28;20338;-83
2023/09/18 08:07:15;;;;;;;23.33;8.90;;;;;;;22.59;100.00;94612.69;5057221;28;20041;-83
2023/09/18 08:09:41;;;;;;;21.92;8.80;;;;;;;23.13;100.00;94608.03;5056109;28;20112;-83
2023/09/18 08:12:08;;;;;;;16.38;8.60;;;;;;;23.25;100.00;94601.84;5056079;28;20132;-83
2023/09/18 08:14:37;;;;;;;17.10;8.88;;;;;;;23.85;100.00;94598.34;5055860;28;20041;-83
2023/09/18 08:17:04;;;;;;;20.08;8.32;;;;;;;23.62;100.00;94588.28;5056201;28;20435;-83
2023/09/18 08:19:31;;;;;;;18.25;9.57;;;;;;;23.43;100.00;94589.72;5014783;28;1205575;-83
2023/09/18 08:21:57;;;;;;;20.80;9.98;;;;;;;22.21;100.00;94595.16;5057106;28;20460;-83
2023/09/18 08:24:22;;;;;;;21.73;9.43;;;;;;;22.01;100.00;94600.31;5058863;28;20025;-82
2023/09/18 08:26:49;;;;;;;18.70;8.38;;;;;;;21.59;100.00;94599.38;5057010;28;20029;-82
2023/09/18 08:29:15;;;;;;;13.18;7.40;;;;;;;22.00;100.00;94593.41;5056995;28;20029;-83
2023/09/18 08:31:40;;;;;;;17.67;7.40;;;;;;;22.49;100.00;94591.78;5057008;28;20056;-83
2023/09/18 08:34:06;;;;;;;16.58;6.50;;;;;;;22.53;100.00;94590.03;5073972;28;20063;-83
2023/09/18 08:36:31;;;;;;;20.85;7.50;;;;;;;22.76;100.00;94610.84;5049544;28;20029;-83
2023/09/18 08:38:57;;;;;;;26.20;8.55;;;;;;;22.23;100.00;94604.38;5036646;28;20112;-83
2023/09/18 08:41:26;;;;;;;12.93;5.97;;;;;;;23.20;100.00;94608.22;5036926;28;20040;-83
2023/09/18 08:43:52;;;;;;;12.40;6.50;;;;;;;22.89;100.00;94601.69;5020709;28;20032;-82
2023/09/18 08:46:18;;;;;;;22.55;7.65;;;;;;;22.96;100.00;94607.22;5036810;28;20060;-83
2023/09/18 08:48:44;;;;;;;23.77;7.50;;;;;;;22.29;100.00;94602.28;5036739;28;20033;-83
2023/09/18 08:51:10;;;;;;;13.43;6.57;;;;;;;22.68;100.00;94607.22;5020463;28;20030;-83
2023/09/18 08:53:36;;;;;;;18.58;6.50;;;;;;;22.92;100.00;94613.59;5036587;28;20029;-83
2023/09/18 08:56:04;;;;;;;16.48;6.10;;;;;;;22.91;100.00;94620.81;5036788;28;20033;-82
2023/09/18 08:58:35;;;;;;;20.08;6.68;;;;;;;22.99;100.00;94619.09;5019923;28;20036;-83
2023/09/18 09:01:03;;;;;;;17.90;6.47;;;;;;;23.20;100.00;94629.59;5036483;28;20377;-83
2023/09/18 09:03:29;;;;;;;17.75;6.25;;;;;;;23.32;100.00;94628.81;5036721;28;20172;-82
2023/09/18 09:05:54;;;;;;;22.17;7.28;;;;;;;23.04;100.00;94626.91;5036320;28;20501;-82
2023/09/18 09:08:20;;;;;;;13.05;6.50;;;;;;;22.96;100.00;94623.25;5035887;28;20105;-83
2023/09/18 09:10:46;;;;;;;42.15;8.75;;;;;;;22.99;100.00;94622.56;5036183;28;20115;-83
2023/09/18 09:13:13;;;;;;;48.38;9.95;;;;;;;23.34;100.00;94626.56;5036215;28;20105;-83
2023/09/18 09:15:46;;;;;;;65.95;10.57;;;;;;;23.63;100.00;94618.47;5036111;28;20437;-83
2023/09/18 09:18:12;;;;;;;80.57;12.60;;;;;;;23.81;100.00;94614.31;5035929;28;20033;-82
2023/09/18 09:20:38;;;;;;;74.38;11.77;;;;;;;23.94;100.00;94606.97;5019637;28;20435;-83
2023/09/18 09:23:06;;;;;;;77.03;11.93;;;;;;;24.08;100.00;94611.13;5035958;28;20057;-83
2023/09/18 09:25:33;;;;;;;90.25;14.32;;;;;;;23.96;100.00;94614.66;5019475;28;20529;-83
2023/09/18 09:28:07;;;;;;;82.30;12.35;;;;;;;23.76;100.00;94611.91;5036098;28;20461;-83
2023/09/18 09:30:35;;;;;;;79.43;12.13;;;;;;;23.91;100.00;94617.59;5037153;28;20028;-83
2023/09/18 09:33:02;;;;;;;78.63;11.20;;;;;;;24.09;100.00;94620.72;5035918;28;20026;-83
2023/09/18 09:35:30;;;;;;;61.95;8.95;;;;;;;24.46;100.00;94630.31;5019207;28;20025;-83
2023/09/18 09:38:00;;;;;;;71.30;11.15;;;;;;;24.35;100.00;94644.22;5035508;28;20029;-83
2023/09/18 09:40:26;;;;;;;83.80;12.75;;;;;;;24.46;100.00;94649.03;5035700;28;20671;-83
2023/09/18 09:43:04;;;;;;;93.93;11.60;;;;;;;24.42;100.00;94652.44;5035667;28;20022;-83
2023/09/18 09:45:34;;;;;;;80.95;11.95;;;;;;;24.40;100.00;94651.22;5035828;28;20119;-83
2023/09/18 09:48:01;;;;;;;89.68;10.13;;;;;;;24.04;100.00;94639.72;5036178;28;20040;-83
2023/09/18 09:50:26;;;;;;;70.53;10.10;;;;;;;24.28;100.00;94634.13;5035429;28;20025;-83
2023/09/18 09:52:54;;;;;;;72.45;10.18;;;;;;;24.36;100.00;94637.75;5036660;28;20026;-83
2023/09/18 09:55:24;;;;;;;78.45;10.20;;;;;;;24.21;100.00;94628.63;5035384;28;20632;-83
2023/09/18 09:58:00;;;;;;;84.50;10.48;;;;;;;24.10;100.00;94617.69;5035162;28;20025;-83
2023/09/18 10:00:36;;;;;;;79.63;12.18;;;;;;;23.95;100.00;94603.19;5035265;28;20025;-83
2023/09/18 10:03:03;;;;;;;66.40;10.43;;;;;;;24.04;100.00;94596.91;5035491;28;20021;-83
2023/09/18 10:05:35;;;;;;;70.07;9.45;;;;;;;24.37;100.00;94590.34;5035237;28;20107;-83
2023/09/18 10:08:06;;;;;;;70.13;10.10;;;;;;;24.48;100.00;94598.59;5018873;28;20466;-83
2023/09/18 10:10:35;;;;;;;83.78;9.90;;;;;;;24.37;100.00;94598.38;5035066;28;20076;-83
2023/09/18 10:13:07;;;;;;;81.10;11.63;;;;;;;24.21;100.00;94590.38;5034943;28;20328;-83
2023/09/18 10:15:38;;;;;;;75.18;10.27;;;;;;;23.99;100.00;94589.88;5034953;28;20025;-83
2023/09/18 10:18:07;;;;;;;81.85;11.38;;;;;;;24.06;100.00;94589.31;5034694;28;20037;-83
2023/09/18 10:20:37;;;;;;;64.13;8.88;;;;;;;24.73;100.00;94580.34;5035259;28;20034;-82
2023/09/18 10:23:05;;;;;;;65.18;8.90;;;;;;;24.62;100.00;94582.81;5034702;28;20025;-82
2023/09/18 10:25:31;;;;;;;60.28;9.45;;;;;;;24.57;100.00;94585.78;5034787;28;20031;-82
2023/09/18 10:28:02;;;;;;;43.50;8.02;;;;;;;24.99;100.00;94582.41;5034571;28;20444;-82
2023/09/18 10:30:29;;;;;;;68.95;9.25;;;;;;;24.57;100.00;94567.03;5034742;28;20037;-82
2023/09/18 10:32:57;;;;;;;50.72;9.05;;;;;;;24.00;100.00;94570.78;5034706;28;20446;-82
2023/09/18 10:35:23;;;;;;;51.97;8.10;;;;;;;23.55;100.00;94566.69;5034776;28;20598;-83
2023/09/18 10:37:51;;;;;;;53.78;9.32;;;;;;;23.34;100.00;94566.97;5017872;28;20026;-82
2023/09/18 10:40:17;;;;;;;63.72;9.13;;;;;;;23.90;100.00;94568.66;5035057;28;20394;-83
2023/09/18 10:42:42;;;;;;;63.85;8.27;;;;;;;24.53;100.00;94584.91;5034554;28;20059;-83
2023/09/18 10:45:12;;;;;;;69.57;9.18;;;;;;;24.67;100.00;94563.78;5035442;28;20040;-82
2023/09/18 10:47:43;;;;;;;78.43;12.48;;;;;;;24.54;100.00;94568.50;5018411;28;20029;-82
2023/09/18 10:50:09;;;;;;;93.47;11.00;;;;;;;24.90;100.00;94571.13;5034426;28;20025;-82
2023/09/18 10:52:36;;;;;;;69.03;11.93;;;;;;;24.80;100.00;94577.06;5034307;28;20037;-82
2023/09/18 10:55:04;;;;;;;72.72;9.90;;;;;;;25.27;100.00;94572.53;5034323;28;20025;-83
2023/09/18 10:57:34;;;;;;;64.57;9.80;;;;;;;25.05;100.00;94566.81;5018201;28;20036;-83
2023/09/18 11:00:00;;;;;;;91.10;9.82;;;;;;;24.96;100.00;94574.31;5018257;28;20025;-82
2023/09/18 11:02:27;;;;;;;79.65;10.30;;;;;;;25.20;93.97;94573.19;5034245;28;20116;-83
2023/09/18 11:04:54;;;;;;;67.43;9.82;;;;;;;25.31;98.30;94573.38;5034071;28;20021;-82
2023/09/18 11:07:21;;;;;;;82.47;10.13;;;;;;;25.29;93.60;94577.56;5034063;28;20021;-82
2023/09/18 11:09:47;;;;;;;82.65;10.63;;;;;;;25.81;90.84;94576.13;5017892;28;20033;-83